Time;durP1;ratioP1;P1;durP2;ratioP2;P2;SDS_P1;SDS_P2;PMS_P1;PMS_P2;Temp;Humidity;BMP_temperature;BMP_pressure;BME280_temperature;BME280_humidity;BME280_pressure;Samples;Min_cycle;Max_cycle;Signal;HPM_P1;HPM_P2
2023/03/06 00:01:59;;;;;;;13.25;7.18;;;6.10;67.90;;;;;;4923284;29;20234;-64
2023/03/06 00:04:29;;;;;;;13.68;7.20;;;6.00;68.00;;;;;;4924433;29;20240;-64
2023/03/06 00:07:18;;;;;;;11.68;7.05;;;6.00;67.90;;;;;;4929973;29;20215;-64
2023/03/06 00:09:52;;;;;;;13.35;6.78;;;6.00;68.00;;;;;;4927698;29;20854;-64
2023/03/06 00:12:32;;;;;;;9.82;5.63;;;6.00;68.00;;;;;;4923240;29;20202;-65
2023/03/06 00:15:03;;;;;;;13.60;7.18;;;6.00;68.00;;;;;;4926794;29;20308;-64
2023/03/06 00:17:38;;;;;;;12.98;7.10;;;6.00;68.00;;;;;;4932224;29;20811;-64
2023/03/06 00:20:08;;;;;;;14.50;7.00;;;5.90;68.00;;;;;;4924029;29;20216;-64
2023/03/06 00:22:38;;;;;;;11.93;6.70;;;6.00;68.00;;;;;;4926354;29;20205;-64
2023/03/06 00:25:13;;;;;;;12.35;6.47;;;6.00;68.10;;;;;;4921869;29;20217;-64
2023/03/06 00:27:56;;;;;;;11.82;6.55;;;6.00;68.00;;;;;;4928788;29;20225;-64
2023/03/06 00:30:26;;;;;;;10.98;6.82;;;6.00;68.00;;;;;;4926520;29;20205;-64
2023/03/06 00:32:54;;;;;;;14.57;7.90;;;6.00;68.10;;;;;;4923504;29;20741;-64
2023/03/06 00:35:23;;;;;;;12.38;7.95;;;6.00;68.10;;;;;;4927497;29;20289;-64
2023/03/06 00:38:01;;;;;;;11.63;6.95;;;6.00;68.00;;;;;;4925461;29;20205;-64
2023/03/06 00:40:33;;;;;;;14.40;6.75;;;6.00;68.00;;;;;;4927102;29;20580;-64
2023/03/06 00:43:07;;;;;;;13.15;7.20;;;6.00;68.10;;;;;;4923264;29;20316;-64
2023/03/06 00:45:36;;;;;;;10.45;6.60;;;6.00;68.10;;;;;;4928367;29;20290;-64
2023/03/06 00:48:12;;;;;;;12.68;6.70;;;6.00;68.00;;;;;;4924766;29;20222;-64
2023/03/06 00:50:48;;;;;;;15.07;7.10;;;6.00;68.10;;;;;;4925563;29;20775;-64
2023/03/06 00:53:25;;;;;;;12.63;7.53;;;6.00;68.00;;;;;;4922648;29;20224;-64
2023/03/06 00:55:54;;;;;;;14.13;7.07;;;6.00;68.00;;;;;;4926002;29;20211;-64
2023/03/06 00:58:34;;;;;;;18.00;8.07;;;5.90;68.00;;;;;;4924919;29;20205;-64
2023/03/06 01:01:05;;;;;;;12.00;6.30;;;6.00;68.00;;;;;;4925095;29;20228;-64
2023/03/06 01:03:33;;;;;;;14.15;7.75;;;6.00;68.00;;;;;;4921689;29;20271;-64
2023/03/06 01:06:05;;;;;;;12.73;7.00;;;5.90;68.10;;;;;;4924111;29;20298;-64
2023/03/06 01:08:44;;;;;;;15.55;7.43;;;5.90;68.00;;;;;;4924891;29;20222;-64
2023/03/06 01:11:17;;;;;;;15.25;7.50;;;5.90;68.00;;;;;;4920252;29;20537;-65
2023/03/06 01:13:56;;;;;;;13.27;7.00;;;5.90;68.20;;;;;;4923113;29;20216;-64
2023/03/06 01:16:36;;;;;;;14.75;7.38;;;5.90;68.10;;;;;;4923339;29;20250;-64
2023/03/06 01:19:07;;;;;;;11.23;6.65;;;5.90;68.10;;;;;;4924561;29;20217;-64
2023/03/06 01:21:36;;;;;;;14.27;6.90;;;5.90;68.10;;;;;;4923120;29;20573;-65
2023/03/06 01:24:12;;;;;;;12.73;7.07;;;5.90;68.10;;;;;;4923453;29;20201;-64
2023/03/06 01:26:43;;;;;;;13.77;7.50;;;5.90;68.10;;;;;;4927709;29;20311;-64
2023/03/06 01:29:21;;;;;;;12.55;7.05;;;5.90;68.10;;;;;;4919155;29;20214;-64
2023/03/06 01:31:49;;;;;;;15.23;7.65;;;6.00;68.10;;;;;;4924863;29;20236;-64
2023/03/06 01:34:21;;;;;;;13.82;7.05;;;6.00;68.10;;;;;;4925192;29;20293;-64
2023/03/06 01:36:55;;;;;;;12.43;6.65;;;6.00;68.10;;;;;;4924919;29;20708;-65
2023/03/06 01:39:30;;;;;;;15.88;7.05;;;6.00;68.00;;;;;;4925181;29;20222;-64
2023/03/06 01:42:01;;;;;;;12.73;7.50;;;5.90;68.00;;;;;;4922440;29;20209;-64
2023/03/06 01:44:33;;;;;;;22.27;7.82;;;5.90;68.10;;;;;;4925840;29;20244;-64
2023/03/06 01:47:11;;;;;;;11.98;7.05;;;5.90;68.10;;;;;;4923627;29;20237;-65
2023/03/06 01:49:49;;;;;;;14.45;6.32;;;5.90;68.00;;;;;;4924428;29;20216;-64
2023/03/06 01:52:29;;;;;;;14.00;6.82;;;5.90;68.00;;;;;;4923713;29;20216;-64
2023/03/06 01:55:02;;;;;;;12.20;7.05;;;5.90;68.10;;;;;;4922951;29;20220;-64
2023/03/06 01:57:34;;;;;;;15.75;7.40;;;5.90;68.10;;;;;;4924105;29;20216;-65
2023/03/06 02:00:09;;;;;;;16.35;7.35;;;5.90;68.10;;;;;;4923468;29;20226;-64
2023/03/06 02:02:51;;;;;;;12.85;7.05;;;5.90;68.20;;;;;;4926613;29;20250;-64
2023/03/06 02:05:29;;;;;;;14.02;7.60;;;5.90;68.10;;;;;;4921567;29;20818;-64
2023/03/06 02:07:58;;;;;;;16.77;7.45;;;5.90;68.10;;;;;;4925391;29;20212;-64
2023/03/06 02:10:26;;;;;;;14.82;8.27;;;5.90;68.10;;;;;;4919767;29;20217;-64
2023/03/06 02:12:55;;;;;;;11.40;6.90;;;5.90;68.10;;;;;;4925854;29;20213;-64
2023/03/06 02:15:36;;;;;;;13.73;7.72;;;5.80;68.10;;;;;;4925643;29;20744;-65
2023/03/06 02:18:16;;;;;;;13.75;7.57;;;5.80;68.10;;;;;;4922874;29;20309;-64
2023/03/06 02:20:48;;;;;;;11.32;6.75;;;5.80;68.10;;;;;;4925499;29;20216;-64
2023/03/06 02:23:27;;;;;;;13.18;6.85;;;5.80;68.10;;;;;;4920335;29;20204;-65
2023/03/06 02:26:01;;;;;;;13.05;7.55;;;5.80;68.10;;;;;;4927126;29;20208;-66
2023/03/06 02:28:38;;;;;;;13.77;6.95;;;5.80;68.20;;;;;;4921604;29;20235;-64
2023/03/06 02:31:11;;;;;;;14.73;8.60;;;5.80;68.20;;;;;;4924581;29;20704;-64
2023/03/06 02:33:43;;;;;;;16.85;7.47;;;5.80;68.10;;;;;;4924031;29;20748;-64
2023/03/06 02:36:20;;;;;;;13.07;7.47;;;5.80;68.20;;;;;;4924035;29;20209;-64
2023/03/06 02:38:56;;;;;;;15.40;7.85;;;5.80;68.30;;;;;;4923880;29;20212;-64
2023/03/06 02:41:44;;;;;;;16.92;9.00;;;5.80;68.30;;;;;;4925132;29;20223;-64
2023/03/06 02:44:36;;;;;;;13.55;7.95;;;5.80;68.30;;;;;;4923931;29;20206;-64
2023/03/06 02:47:07;;;;;;;14.10;8.15;;;5.80;68.20;;;;;;4925144;29;20274;-67
2023/03/06 02:49:43;;;;;;;16.73;7.72;;;5.80;68.20;;;;;;4924491;29;20208;-64
2023/03/06 02:52:15;;;;;;;18.02;8.63;;;5.80;68.20;;;;;;4921259;29;20212;-64
2023/03/06 02:54:46;;;;;;;13.55;7.55;;;5.80;68.20;;;;;;4922027;29;20629;-64
2023/03/06 02:57:33;;;;;;;15.40;7.85;;;5.80;68.20;;;;;;4924208;29;20212;-64
2023/03/06 03:00:07;;;;;;;14.95;7.63;;;5.80;68.20;;;;;;4919934;29;21042;-64
2023/03/06 03:02:37;;;;;;;13.85;7.32;;;5.80;68.20;;;;;;4925467;29;20308;-64
2023/03/06 03:05:11;;;;;;;12.40;7.65;;;5.80;68.20;;;;;;4925910;29;20207;-63
2023/03/06 03:07:47;;;;;;;12.63;7.85;;;5.80;68.20;;;;;;4929796;29;20888;-64
2023/03/06 03:10:22;;;;;;;13.77;7.78;;;5.80;68.20;;;;;;4928964;29;20197;-63
2023/03/06 03:12:53;;;;;;;14.82;7.20;;;5.80;68.20;;;;;;4927316;29;20295;-64
2023/03/06 03:15:21;;;;;;;16.08;8.35;;;5.80;68.20;;;;;;4928729;29;20247;-64
2023/03/06 03:17:52;;;;;;;15.13;9.13;;;5.80;68.20;;;;;;4922670;29;20209;-64
2023/03/06 03:20:24;;;;;;;12.63;7.60;;;5.70;68.30;;;;;;4930597;29;20785;-65
2023/03/06 03:22:54;;;;;;;12.13;7.22;;;5.80;68.30;;;;;;4924637;29;20273;-64
2023/03/06 03:25:23;;;;;;;13.25;7.45;;;5.70;68.20;;;;;;4930833;29;20239;-64
2023/03/06 03:27:55;;;;;;;13.27;8.20;;;5.70;68.30;;;;;;4927953;29;20223;-64
2023/03/06 03:30:27;;;;;;;15.40;7.63;;;5.70;68.30;;;;;;4927287;29;20548;-65
2023/03/06 03:33:03;;;;;;;14.68;7.72;;;5.80;68.40;;;;;;4929281;29;20213;-64
2023/03/06 03:35:34;;;;;;;14.10;8.23;;;5.70;68.30;;;;;;4931594;29;20221;-64
2023/03/06 03:38:02;;;;;;;15.10;7.63;;;5.70;68.30;;;;;;4931785;29;20224;-64
2023/03/06 03:40:30;;;;;;;15.20;8.60;;;5.70;68.20;;;;;;4910493;29;20545;-64
2023/03/06 03:43:00;;;;;;;17.90;9.43;;;5.70;68.30;;;;;;4925841;29;20238;-66
2023/03/06 03:45:28;;;;;;;15.52;8.95;;;5.70;68.30;;;;;;4930275;28;20210;-65
2023/03/06 03:47:59;;;;;;;15.05;8.57;;;5.70;68.30;;;;;;4928036;29;20208;-64
2023/03/06 03:50:35;;;;;;;16.88;8.45;;;5.70;68.40;;;;;;4923142;29;20219;-64
2023/03/06 03:53:14;;;;;;;17.08;9.93;;;5.80;68.40;;;;;;4929346;29;20268;-65
2023/03/06 03:55:48;;;;;;;15.43;7.90;;;5.70;68.40;;;;;;4928434;29;20204;-64
2023/03/06 03:58:21;;;;;;;15.65;9.00;;;5.70;68.40;;;;;;4928713;29;20212;-64
2023/03/06 04:00:50;;;;;;;15.63;8.70;;;5.70;68.30;;;;;;4927830;29;20297;-64
2023/03/06 04:03:25;;;;;;;18.13;8.90;;;5.70;68.40;;;;;;4926096;29;20213;-64
2023/03/06 04:06:00;;;;;;;18.55;9.73;;;5.70;68.40;;;;;;4927130;29;20192;-64
2023/03/06 04:08:38;;;;;;;15.07;8.98;;;5.70;68.40;;;;;;4930742;29;20223;-65
2023/03/06 04:11:10;;;;;;;18.00;9.48;;;5.70;68.40;;;;;;4925515;29;20209;-65
2023/03/06 04:13:44;;;;;;;16.23;9.60;;;5.70;68.40;;;;;;4930135;29;20280;-64
2023/03/06 04:16:17;;;;;;;16.05;9.38;;;5.70;68.40;;;;;;4920900;29;20566;-64
2023/03/06 04:18:54;;;;;;;14.25;8.40;;;5.70;68.50;;;;;;4924949;29;20714;-64
2023/03/06 04:21:22;;;;;;;18.70;9.48;;;5.70;68.50;;;;;;4922284;29;20226;-64
2023/03/06 04:23:54;;;;;;;18.42;8.77;;;5.70;68.50;;;;;;4925230;29;20212;-64
2023/03/06 04:26:33;;;;;;;19.25;10.30;;;5.70;68.50;;;;;;4912319;29;20205;-64
2023/03/06 04:29:18;;;;;;;16.10;9.40;;;5.70;68.50;;;;;;4922552;29;20715;-65
2023/03/06 04:31:54;;;;;;;17.63;9.05;;;5.70;68.60;;;;;;4908492;29;20596;-64
2023/03/06 04:34:33;;;;;;;17.30;9.30;;;5.70;68.60;;;;;;4924898;29;20220;-64
2023/03/06 04:37:04;;;;;;;19.00;9.52;;;5.70;68.60;;;;;;4922398;29;20200;-66
2023/03/06 04:39:43;;;;;;;17.52;10.35;;;5.70;68.60;;;;;;4925642;29;20612;-64
2023/03/06 04:42:13;;;;;;;18.98;9.73;;;5.70;68.60;;;;;;4924664;29;20220;-64
2023/03/06 04:44:50;;;;;;;21.08;9.82;;;5.60;68.60;;;;;;4925350;29;20656;-64
2023/03/06 04:47:23;;;;;;;18.77;10.10;;;5.70;68.60;;;;;;4932235;29;20205;-64
2023/03/06 04:49:56;;;;;;;19.48;11.18;;;5.60;68.60;;;;;;4924161;29;20552;-64
2023/03/06 04:52:35;;;;;;;16.58;9.30;;;5.60;68.60;;;;;;4921558;29;20213;-64
2023/03/06 04:55:15;;;;;;;23.67;10.50;;;5.60;68.60;;;;;;4923247;29;20208;-64
2023/03/06 04:57:57;;;;;;;17.27;9.57;;;5.60;68.70;;;;;;4926448;29;20267;-65
2023/03/06 05:00:37;;;;;;;21.17;12.15;;;5.50;68.70;;;;;;4925109;29;20260;-65
2023/03/06 05:03:08;;;;;;;19.98;10.63;;;5.50;68.70;;;;;;4904723;29;20211;-64
2023/03/06 05:05:36;;;;;;;19.42;10.50;;;5.50;68.80;;;;;;4923910;29;20217;-64
2023/03/06 05:08:15;;;;;;;18.02;10.50;;;5.50;68.80;;;;;;4921116;29;20202;-65
2023/03/06 05:10:45;;;;;;;19.48;10.60;;;5.50;68.80;;;;;;4926648;29;20611;-65
2023/03/06 05:13:16;;;;;;;19.17;10.38;;;5.50;68.90;;;;;;4922410;29;20201;-64
2023/03/06 05:15:53;;;;;;;20.40;10.57;;;5.50;68.90;;;;;;4925081;29;20296;-64
2023/03/06 05:18:21;;;;;;;20.55;11.25;;;5.60;68.90;;;;;;4925283;29;20217;-64
2023/03/06 05:20:58;;;;;;;21.90;10.65;;;5.50;68.90;;;;;;4921198;29;20233;-64
2023/03/06 05:23:27;;;;;;;17.05;9.80;;;5.50;68.90;;;;;;4922068;29;20224;-64
2023/03/06 05:25:57;;;;;;;18.27;10.70;;;5.50;69.00;;;;;;4923370;29;20582;-64
2023/03/06 05:28:29;;;;;;;24.60;11.52;;;5.50;69.00;;;;;;4925073;29;20641;-65
2023/03/06 05:31:06;;;;;;;18.48;10.70;;;5.50;69.10;;;;;;4922907;29;20229;-64
2023/03/06 05:33:49;;;;;;;22.70;10.70;;;5.50;69.10;;;;;;4923520;29;20533;-64
2023/03/06 05:36:22;;;;;;;20.55;12.15;;;5.50;69.10;;;;;;4927398;29;20205;-64
2023/03/06 05:38:57;;;;;;;21.98;12.38;;;5.50;69.10;;;;;;4925403;29;20204;-64
2023/03/06 05:41:28;;;;;;;20.98;11.68;;;5.50;69.20;;;;;;4923604;29;20225;-65
2023/03/06 05:44:01;;;;;;;19.65;11.93;;;5.50;69.20;;;;;;4920727;29;20300;-64
2023/03/06 05:46:37;;;;;;;19.85;11.88;;;5.50;69.20;;;;;;4924853;29;20289;-64
2023/03/06 05:49:17;;;;;;;21.45;12.40;;;5.50;69.30;;;;;;4923711;29;20646;-64
2023/03/06 05:54:35;;;;;;;21.67;12.27;;;5.50;69.50;;;;;;4923130;29;20640;-64
2023/03/06 05:57:08;;;;;;;21.65;12.68;;;5.40;69.50;;;;;;4923955;29;20581;-64
2023/03/06 05:59:44;;;;;;;23.40;12.77;;;5.40;69.50;;;;;;4924149;29;20391;-64
2023/03/06 06:02:21;;;;;;;21.85;12.15;;;5.50;69.60;;;;;;4920907;29;20228;-64
2023/03/06 06:04:52;;;;;;;23.20;13.05;;;5.50;69.60;;;;;;4926745;29;20204;-64
2023/03/06 06:07:23;;;;;;;24.77;12.80;;;5.40;69.60;;;;;;4923855;29;20205;-64
2023/03/06 06:09:57;;;;;;;25.90;13.32;;;5.40;69.60;;;;;;4922831;29;20212;-64
2023/03/06 06:12:31;;;;;;;24.40;13.23;;;5.40;69.70;;;;;;4923751;29;20273;-64
2023/03/06 06:15:02;;;;;;;22.85;12.05;;;5.40;69.70;;;;;;4920911;29;20209;-64
2023/03/06 06:17:38;;;;;;;21.70;12.95;;;5.40;69.80;;;;;;4923368;29;20231;-64
2023/03/06 06:20:09;;;;;;;22.50;13.45;;;5.40;69.80;;;;;;4922989;29;20227;-64
2023/03/06 06:22:40;;;;;;;23.92;14.38;;;5.40;69.90;;;;;;4920570;29;20228;-64
2023/03/06 06:25:08;;;;;;;23.15;12.98;;;5.40;69.90;;;;;;4924249;29;20197;-64
2023/03/06 06:27:36;;;;;;;23.50;13.50;;;5.40;69.90;;;;;;4924824;29;20225;-64
2023/03/06 06:30:15;;;;;;;19.50;12.45;;;5.40;69.90;;;;;;4919538;29;20629;-64
2023/03/06 06:33:00;;;;;;;29.17;14.98;;;5.40;70.00;;;;;;4922159;29;20224;-64
2023/03/06 06:35:37;;;;;;;23.00;13.18;;;5.50;70.10;;;;;;4921556;29;20213;-64
2023/03/06 06:38:12;;;;;;;25.95;13.55;;;5.50;70.00;;;;;;4918362;29;20240;-64
2023/03/06 06:40:40;;;;;;;23.20;14.07;;;5.50;70.10;;;;;;4924438;29;20294;-64
2023/03/06 06:43:09;;;;;;;24.80;12.85;;;5.50;70.10;;;;;;4927535;29;20599;-64
2023/03/06 06:45:47;;;;;;;24.65;13.05;;;5.50;70.20;;;;;;4922571;29;20205;-65
2023/03/06 06:48:36;;;;;;;28.40;13.88;;;5.50;70.20;;;;;;4920420;29;20200;-64
2023/03/06 06:51:15;;;;;;;24.67;13.38;;;5.50;70.30;;;;;;4922296;29;20213;-64
2023/03/06 06:53:46;;;;;;;24.67;13.00;;;5.50;70.30;;;;;;4919966;29;20233;-64
2023/03/06 06:56:19;;;;;;;25.25;14.40;;;5.50;70.30;;;;;;4919278;29;20280;-64
2023/03/06 06:58:51;;;;;;;22.60;13.13;;;5.60;70.40;;;;;;4924987;29;20216;-66
2023/03/06 07:01:21;;;;;;;24.38;13.82;;;5.60;70.40;;;;;;4920649;29;20240;-66
2023/03/06 07:03:53;;;;;;;24.35;13.73;;;5.60;70.40;;;;;;4920633;29;20239;-65
2023/03/06 07:06:22;;;;;;;23.58;13.35;;;5.60;70.40;;;;;;4919516;29;20213;-66
2023/03/06 07:09:04;;;;;;;20.80;12.40;;;5.60;70.50;;;;;;4916858;29;20590;-66
2023/03/06 07:11:32;;;;;;;20.98;12.65;;;5.60;70.50;;;;;;4919329;29;20219;-66
2023/03/06 07:14:11;;;;;;;26.02;12.18;;;5.50;70.50;;;;;;4923949;29;20212;-66
2023/03/06 07:16:51;;;;;;;21.35;11.60;;;5.50;70.60;;;;;;4923286;29;20964;-66
2023/03/06 07:19:26;;;;;;;21.83;11.85;;;5.50;70.70;;;;;;4926777;29;20879;-68
2023/03/06 07:21:59;;;;;;;24.52;12.15;;;5.50;70.80;;;;;;4920631;29;20214;-67
2023/03/06 07:24:39;;;;;;;20.88;11.07;;;5.50;70.80;;;;;;4921109;29;20552;-66
2023/03/06 07:29:57;;;;;;;22.45;12.15;;;5.40;70.90;;;;;;4923886;29;20268;-66
2023/03/06 07:32:31;;;;;;;20.52;13.00;;;5.40;71.10;;;;;;4921954;29;20240;-66
2023/03/06 07:35:03;;;;;;;24.67;12.75;;;5.40;71.20;;;;;;4923694;29;20217;-66
2023/03/06 07:37:54;;;;;;;18.80;11.98;;;5.50;71.30;;;;;;4925857;29;20204;-66
2023/03/06 07:40:26;;;;;;;23.20;12.68;;;5.50;71.30;;;;;;4921862;29;20276;-66
2023/03/06 07:43:06;;;;;;;21.55;12.00;;;5.50;71.30;;;;;;4921223;29;20561;-67
2023/03/06 07:46:06;;;;;;;21.27;12.98;;;5.50;71.40;;;;;;4924646;29;20205;-66
2023/03/06 07:48:37;;;;;;;22.35;12.80;;;5.50;71.40;;;;;;4925441;29;20216;-66
2023/03/06 07:51:11;;;;;;;19.45;11.75;;;5.50;71.50;;;;;;4926137;29;20209;-66
2023/03/06 07:53:45;;;;;;;22.63;12.52;;;5.50;71.70;;;;;;4928774;29;20210;-66
2023/03/06 07:56:13;;;;;;;21.17;12.88;;;5.50;71.80;;;;;;4924548;29;20204;-66
2023/03/06 07:58:48;;;;;;;22.05;12.20;;;5.40;71.80;;;;;;4926101;29;20611;-66
2023/03/06 08:01:25;;;;;;;23.15;12.90;;;5.40;71.90;;;;;;4926806;29;20249;-66
2023/03/06 08:04:08;;;;;;;22.20;11.88;;;5.50;71.90;;;;;;4930219;29;20301;-65
2023/03/06 08:06:44;;;;;;;24.50;13.13;;;5.50;71.90;;;;;;4929332;29;20529;-66
2023/03/06 08:09:22;;;;;;;21.70;12.70;;;5.40;72.00;;;;;;4930983;29;20268;-66
2023/03/06 08:11:54;;;;;;;21.33;12.77;;;5.50;72.10;;;;;;4924447;29;20215;-66
2023/03/06 08:14:41;;;;;;;22.02;12.60;;;5.50;72.10;;;;;;4926308;29;20205;-66
2023/03/06 08:17:12;;;;;;;22.25;13.32;;;5.50;72.20;;;;;;4925590;29;20559;-66
2023/03/06 08:19:51;;;;;;;22.00;12.95;;;5.50;72.20;;;;;;4927873;29;20232;-66
2023/03/06 08:22:29;;;;;;;19.88;11.52;;;5.50;72.30;;;;;;4928206;29;20779;-66
2023/03/06 08:25:02;;;;;;;23.90;12.68;;;5.50;72.40;;;;;;4938227;29;20222;-65
2023/03/06 08:27:33;;;;;;;21.92;12.65;;;5.50;72.70;;;;;;4926556;29;20820;-67
2023/03/06 08:30:08;;;;;;;22.88;13.10;;;5.50;72.50;;;;;;4927863;29;20224;-66
2023/03/06 08:32:49;;;;;;;25.48;13.48;;;5.50;72.80;;;;;;4926948;29;20300;-67
2023/03/06 08:35:17;;;;;;;25.75;14.60;;;5.50;72.90;;;;;;4927266;29;20206;-66
2023/03/06 08:37:52;;;;;;;22.30;13.18;;;5.50;72.90;;;;;;4929532;29;20213;-66
2023/03/06 08:40:30;;;;;;;24.85;13.57;;;5.50;73.10;;;;;;4926528;29;20657;-66
2023/03/06 08:43:10;;;;;;;23.13;13.57;;;5.60;73.10;;;;;;4924045;29;20225;-66
2023/03/06 08:45:44;;;;;;;28.35;14.50;;;5.60;73.30;;;;;;4923789;29;20231;-66
2023/03/06 08:48:19;;;;;;;24.00;13.43;;;5.70;73.30;;;;;;4929143;29;20529;-67
2023/03/06 08:50:52;;;;;;;23.48;13.15;;;5.70;73.20;;;;;;4927845;29;20222;-66
2023/03/06 08:53:24;;;;;;;25.73;14.38;;;5.70;73.30;;;;;;4927815;29;20201;-66
2023/03/06 08:56:16;;;;;;;23.67;13.43;;;5.80;73.30;;;;;;4923163;29;20285;-66
2023/03/06 08:58:56;;;;;;;24.92;14.07;;;5.80;73.40;;;;;;4928824;29;20228;-66
2023/03/06 09:01:33;;;;;;;26.98;12.80;;;5.80;73.30;;;;;;4922101;29;20298;-66
2023/03/06 09:04:09;;;;;;;21.15;13.50;;;5.80;73.40;;;;;;4927807;29;20287;-66
2023/03/06 09:06:49;;;;;;;25.08;13.98;;;5.90;73.40;;;;;;4927497;29;20669;-67
2023/03/06 09:09:24;;;;;;;24.75;13.80;;;5.90;73.50;;;;;;4925091;29;20226;-67
2023/03/06 09:11:52;;;;;;;20.85;13.18;;;5.90;73.40;;;;;;4927328;29;20769;-66
2023/03/06 09:14:20;;;;;;;23.77;13.55;;;6.00;73.50;;;;;;4922209;29;20201;-66
2023/03/06 09:16:48;;;;;;;24.05;14.07;;;6.00;73.50;;;;;;4931132;29;20212;-66
2023/03/06 09:19:20;;;;;;;24.35;13.45;;;6.00;73.40;;;;;;4925907;29;21139;-66
2023/03/06 09:21:54;;;;;;;21.70;14.07;;;6.00;73.50;;;;;;4926642;29;20574;-66
2023/03/06 09:24:25;;;;;;;21.80;14.50;;;6.00;73.60;;;;;;4924717;29;20718;-66
2023/03/06 09:26:56;;;;;;;29.42;16.08;;;6.00;73.70;;;;;;4928759;29;20245;-66
2023/03/06 09:29:27;;;;;;;27.30;14.27;;;6.10;73.70;;;;;;4924170;29;20714;-66
2023/03/06 09:31:54;;;;;;;23.38;14.00;;;6.10;73.80;;;;;;4924893;29;20232;-65
2023/03/06 09:34:26;;;;;;;23.98;14.40;;;6.10;73.90;;;;;;4925532;29;20221;-66
2023/03/06 09:37:03;;;;;;;21.80;13.77;;;6.20;73.90;;;;;;4922131;29;20197;-65
2023/03/06 09:39:46;;;;;;;24.45;14.00;;;6.20;73.80;;;;;;4928426;29;20612;-65
2023/03/06 09:42:18;;;;;;;25.33;13.23;;;6.20;73.80;;;;;;4922260;29;20218;-66
2023/03/06 09:44:54;;;;;;;24.58;13.98;;;6.30;73.70;;;;;;4928013;29;20725;-66
2023/03/06 09:47:40;;;;;;;23.20;14.80;;;6.30;73.60;;;;;;4925452;29;20209;-66
2023/03/06 09:50:48;;;;;;;22.15;13.82;;;6.30;73.70;;;;;;4926404;29;20345;-66
2023/03/06 09:53:47;;;;;;;22.75;12.98;;;6.30;73.60;;;;;;4926954;29;20660;-67
2023/03/06 09:56:23;;;;;;;24.15;14.15;;;6.30;73.60;;;;;;4922239;29;20332;-66
2023/03/06 09:59:16;;;;;;;25.20;13.55;;;6.30;73.60;;;;;;4929908;29;20210;-66
2023/03/06 10:01:55;;;;;;;24.27;13.77;;;6.30;73.50;;;;;;4925776;29;20253;-66
2023/03/06 10:04:39;;;;;;;23.10;13.85;;;6.30;73.60;;;;;;4926626;29;20231;-66
2023/03/06 10:07:26;;;;;;;24.38;14.00;;;6.30;73.50;;;;;;4930544;29;20544;-66
2023/03/06 10:09:59;;;;;;;24.40;14.95;;;6.30;73.50;;;;;;4929396;29;20884;-66
2023/03/06 10:12:43;;;;;;;23.35;14.60;;;6.30;73.60;;;;;;4925338;29;20609;-66
2023/03/06 10:15:17;;;;;;;24.55;13.35;;;6.40;73.40;;;;;;4924153;29;20198;-66
2023/03/06 10:17:48;;;;;;;29.23;13.95;;;6.40;73.40;;;;;;4926555;29;20213;-66
2023/03/06 10:20:25;;;;;;;26.75;14.15;;;6.40;73.30;;;;;;4924178;29;20315;-66
2023/03/06 10:23:25;;;;;;;23.33;13.65;;;6.40;73.40;;;;;;4928658;29;20580;-66
2023/03/06 10:25:59;;;;;;;23.35;14.05;;;6.40;73.30;;;;;;4929091;29;20224;-66
2023/03/06 10:28:43;;;;;;;26.55;15.10;;;6.40;73.40;;;;;;4923805;29;20315;-67
2023/03/06 10:31:20;;;;;;;22.90;13.77;;;6.40;73.40;;;;;;4925076;29;20335;-66
2023/03/06 10:33:54;;;;;;;26.63;14.95;;;6.40;73.40;;;;;;4928505;29;20205;-66
2023/03/06 10:36:32;;;;;;;22.05;12.82;;;6.40;73.40;;;;;;4926998;29;20701;-65
2023/03/06 10:39:10;;;;;;;27.95;13.50;;;6.40;73.40;;;;;;4928854;29;20210;-66
2023/03/06 10:41:44;;;;;;;22.27;13.77;;;6.50;73.40;;;;;;4909456;29;20375;-66
2023/03/06 10:44:26;;;;;;;23.08;13.30;;;6.50;73.40;;;;;;4926816;29;20231;-66
2023/03/06 10:47:03;;;;;;;24.25;13.93;;;6.60;73.20;;;;;;4927824;29;20218;-66
2023/03/06 10:49:37;;;;;;;21.50;13.27;;;6.60;73.00;;;;;;4925268;29;20292;-66
2023/03/06 10:52:23;;;;;;;21.25;12.98;;;6.50;72.90;;;;;;4925904;29;20212;-67
2023/03/06 10:55:23;;;;;;;24.42;13.65;;;6.50;72.90;;;;;;4924026;29;20212;-66
2023/03/06 10:58:03;;;;;;;22.50;13.90;;;6.50;72.90;;;;;;4926715;29;20210;-66
2023/03/06 11:00:34;;;;;;;23.27;13.88;;;6.50;72.80;;;;;;4920536;29;20261;-66
2023/03/06 11:03:17;;;;;;;22.13;12.93;;;6.50;72.80;;;;;;4926463;29;20270;-66
2023/03/06 11:06:10;;;;;;;23.88;13.85;;;6.50;72.70;;;;;;4926474;29;20226;-66
2023/03/06 11:08:43;;;;;;;24.40;14.02;;;6.50;72.70;;;;;;4922246;29;20288;-66
2023/03/06 11:11:27;;;;;;;22.13;13.32;;;6.50;72.70;;;;;;4930931;29;20305;-66
2023/03/06 11:14:17;;;;;;;26.48;14.07;;;6.50;72.70;;;;;;4923932;29;20218;-67
2023/03/06 11:16:54;;;;;;;22.08;13.10;;;6.60;72.80;;;;;;4925250;29;20217;-66
2023/03/06 11:19:31;;;;;;;20.55;13.00;;;6.60;72.90;;;;;;4923725;29;20812;-65
2023/03/06 11:22:08;;;;;;;27.95;15.65;;;6.70;72.90;;;;;;4916783;29;20221;-67
2023/03/06 11:24:42;;;;;;;23.75;14.07;;;6.80;72.80;;;;;;4932709;29;20235;-66
2023/03/06 11:27:33;;;;;;;29.70;15.45;;;6.80;72.70;;;;;;4912066;29;20542;-66
2023/03/06 11:30:22;;;;;;;22.50;12.98;;;6.90;72.70;;;;;;4927114;29;20670;-65
2023/03/06 11:33:00;;;;;;;25.48;14.10;;;6.90;72.50;;;;;;4926733;29;20226;-64
2023/03/06 11:35:45;;;;;;;20.88;13.73;;;6.90;72.50;;;;;;4924408;29;20250;-65
2023/03/06 11:38:22;;;;;;;20.15;12.60;;;6.90;72.50;;;;;;4929189;29;20211;-64
2023/03/06 11:40:54;;;;;;;19.67;11.85;;;7.00;72.20;;;;;;4928828;29;20205;-67
2023/03/06 11:43:26;;;;;;;19.05;12.45;;;7.00;72.10;;;;;;4928837;29;20220;-65
2023/03/06 11:46:04;;;;;;;23.52;12.95;;;7.00;72.10;;;;;;4926966;29;20219;-64
2023/03/06 11:48:43;;;;;;;22.45;13.75;;;7.10;71.90;;;;;;4927842;29;20205;-64
2023/03/06 11:51:22;;;;;;;23.67;12.93;;;7.00;71.60;;;;;;4926450;29;20250;-64
2023/03/06 11:53:50;;;;;;;26.10;13.30;;;7.00;71.30;;;;;;4926103;29;20210;-64
2023/03/06 11:56:27;;;;;;;22.02;13.15;;;7.00;71.10;;;;;;4932811;29;20213;-64
2023/03/06 11:59:24;;;;;;;20.52;11.18;;;7.00;71.00;;;;;;4927800;29;20284;-65
2023/03/06 12:02:06;;;;;;;20.92;10.82;;;7.00;70.90;;;;;;4924617;29;20757;-65
2023/03/06 12:04:55;;;;;;;18.88;12.10;;;6.90;71.00;;;;;;4926655;29;20574;-64
2023/03/06 12:07:34;;;;;;;19.63;11.60;;;6.90;71.10;;;;;;4925011;29;20217;-64
2023/03/06 12:10:23;;;;;;;20.00;12.70;;;7.00;70.90;;;;;;4927122;29;20278;-64
2023/03/06 12:13:19;;;;;;;21.73;12.75;;;7.10;71.00;;;;;;4914374;29;20227;-64
2023/03/06 12:16:17;;;;;;;21.80;12.32;;;7.20;70.80;;;;;;4924097;29;20207;-64
2023/03/06 12:18:53;;;;;;;19.75;11.07;;;7.30;70.80;;;;;;4928666;29;20208;-66
2023/03/06 12:21:31;;;;;;;20.75;11.85;;;7.40;70.60;;;;;;4926276;29;20331;-64
2023/03/06 12:24:11;;;;;;;19.20;12.40;;;7.40;70.40;;;;;;4929595;29;20269;-65
2023/03/06 12:27:01;;;;;;;19.80;11.73;;;7.50;70.20;;;;;;4927945;29;20243;-64
2023/03/06 12:29:57;;;;;;;19.85;11.07;;;7.60;70.00;;;;;;4928712;29;20467;-64
2023/03/06 12:32:42;;;;;;;20.88;11.57;;;7.60;69.90;;;;;;4892025;29;20565;-65
2023/03/06 12:35:35;;;;;;;17.42;10.73;;;7.60;69.70;;;;;;4925185;29;20242;-64
2023/03/06 12:38:33;;;;;;;16.65;10.07;;;7.70;69.30;;;;;;4929307;29;20271;-64
2023/03/06 12:41:15;;;;;;;19.45;11.57;;;7.60;68.90;;;;;;4926461;29;20269;-68
2023/03/06 12:44:09;;;;;;;18.58;11.15;;;7.60;69.20;;;;;;4925019;29;20227;-64
2023/03/06 12:46:43;;;;;;;16.13;10.20;;;7.60;69.10;;;;;;4924242;29;20304;-68
2023/03/06 12:49:13;;;;;;;18.77;11.07;;;7.60;69.20;;;;;;4925254;29;20479;-67
2023/03/06 12:51:58;;;;;;;21.48;12.35;;;7.70;68.90;;;;;;4925958;29;20229;-67
2023/03/06 12:54:34;;;;;;;23.33;12.30;;;7.80;68.70;;;;;;4922815;29;20267;-65
2023/03/06 12:57:05;;;;;;;18.80;11.63;;;7.80;68.60;;;;;;4926735;29;20215;-64
2023/03/06 12:59:43;;;;;;;20.37;11.47;;;7.80;68.20;;;;;;4928368;29;20468;-64
2023/03/06 13:02:59;;;;;;;17.85;10.05;;;7.80;68.10;;;;;;4921120;29;20510;-65
2023/03/06 13:05:33;;;;;;;18.17;11.10;;;7.80;67.60;;;;;;4905889;29;20228;-65
2023/03/06 13:08:22;;;;;;;20.63;12.30;;;7.70;67.60;;;;;;4927960;29;20210;-67
2023/03/06 13:11:31;;;;;;;19.55;10.80;;;7.70;67.90;;;;;;4928936;29;20219;-65
2023/03/06 13:14:25;;;;;;;17.45;10.27;;;7.80;67.70;;;;;;4919889;29;20224;-65
2023/03/06 13:17:15;;;;;;;17.15;10.38;;;7.80;67.60;;;;;;4925305;29;20203;-67
2023/03/06 13:19:43;;;;;;;19.40;10.83;;;7.80;67.70;;;;;;4911025;29;20218;-66
2023/03/06 13:22:22;;;;;;;21.37;11.50;;;7.90;67.40;;;;;;4929747;29;20451;-66
2023/03/06 13:25:28;;;;;;;17.70;10.40;;;8.00;67.20;;;;;;4929582;29;20459;-67
2023/03/06 13:28:04;;;;;;;18.20;11.00;;;8.00;67.30;;;;;;4924708;29;20221;-66
2023/03/06 13:30:44;;;;;;;20.70;11.38;;;8.00;66.90;;;;;;4926251;29;20244;-66
2023/03/06 13:33:49;;;;;;;18.50;11.18;;;8.00;66.90;;;;;;4925977;29;20940;-67
2023/03/06 13:36:26;;;;;;;17.87;10.40;;;8.00;66.90;;;;;;4924164;29;20230;-65